createdAt,value
2018-08-18T00:00:22.673Z,21.31
2018-08-18T00:02:51.070Z,21.25
2018-08-18T00:05:19.522Z,21.23
2018-08-18T00:07:48.233Z,21.24
2018-08-18T00:10:18.202Z,21.26
2018-08-18T00:12:46.604Z,21.24
2018-08-18T00:15:14.956Z,21.18
2018-08-18T00:17:43.305Z,21.23
2018-08-18T00:20:14.669Z,21.25
2018-08-18T00:22:43.062Z,21.31
2018-08-18T00:25:11.426Z,21.34
2018-08-18T00:27:39.764Z,21.26
2018-08-18T00:30:14.915Z,21.25
2018-08-18T00:32:43.570Z,21.21
2018-08-18T00:35:11.886Z,21.21
2018-08-18T00:37:40.236Z,21.23
2018-08-18T00:40:09.834Z,21.22
2018-08-18T00:42:38.515Z,21.16
2018-08-18T00:45:08.739Z,21.18
2018-08-18T00:47:37.337Z,21.18
2018-08-18T00:50:06.009Z,21.18
2018-08-18T00:52:34.373Z,21.11
2018-08-18T00:55:02.875Z,21.05
2018-08-18T00:57:32.216Z,21.10
2018-08-18T01:00:00.856Z,21.13
2018-08-18T01:02:29.555Z,21.12
2018-08-18T01:05:02.943Z,21.10
2018-08-18T01:07:32.446Z,21.06
2018-08-18T01:10:01.251Z,21.06
2018-08-18T01:12:29.695Z,21.06
2018-08-18T01:14:58.384Z,21.07
2018-08-18T01:17:26.983Z,21.07
2018-08-18T01:19:57.014Z,21.07
2018-08-18T01:22:25.586Z,21.11
2018-08-18T01:24:54.281Z,21.12
2018-08-18T01:27:22.978Z,21.14
2018-08-18T01:29:55.482Z,21.16
2018-08-18T01:32:23.858Z,21.13
2018-08-18T01:34:52.814Z,21.06
2018-08-18T01:37:21.696Z,21.15
2018-08-18T01:39:53.365Z,21.14
2018-08-18T01:42:21.934Z,21.15
2018-08-18T01:44:52.120Z,21.15
2018-08-18T01:47:20.493Z,21.14
2018-08-18T01:49:48.828Z,21.09
2018-08-18T01:52:24.378Z,21.14
2018-08-18T01:54:52.726Z,21.15
2018-08-18T01:57:22.243Z,21.12
2018-08-18T01:59:50.747Z,21.12
2018-08-18T02:02:21.213Z,21.14
2018-08-18T02:04:50.210Z,21.18
2018-08-18T02:07:27.133Z,21.16
2018-08-18T02:09:55.935Z,21.11
2018-08-18T02:12:24.622Z,21.08
2018-08-18T02:14:53.404Z,21.04
2018-08-18T02:17:33.042Z,21.02
2018-08-18T02:20:01.642Z,21.04
2018-08-18T02:22:30.732Z,20.96
2018-08-18T02:24:59.213Z,20.97
2018-08-18T02:27:27.778Z,20.90
2018-08-18T02:30:09.073Z,20.83
2018-08-18T02:32:38.627Z,20.82
2018-08-18T02:35:07.662Z,20.79
2018-08-18T02:37:36.192Z,20.72
2018-08-18T02:40:08.187Z,20.75
2018-08-18T02:42:36.507Z,20.72
2018-08-18T02:45:05.662Z,20.67
2018-08-18T02:47:34.082Z,20.61
2018-08-18T02:50:02.495Z,20.59
2018-08-18T02:52:33.632Z,20.61
2018-08-18T02:55:04.078Z,20.54
2018-08-18T02:57:33.848Z,20.53
2018-08-18T03:00:06.199Z,20.50
2018-08-18T03:02:34.693Z,20.45
2018-08-18T03:05:03.111Z,20.35
2018-08-18T03:07:40.297Z,20.37
2018-08-18T03:10:15.604Z,20.35
2018-08-18T03:12:45.914Z,20.28
2018-08-18T03:15:51.896Z,20.24
2018-08-18T03:18:32.503Z,20.30
2018-08-18T03:21:01.861Z,20.20
2018-08-18T03:23:30.430Z,20.24
2018-08-18T03:25:58.815Z,20.19
2018-08-18T03:28:27.198Z,20.26
2018-08-18T03:30:56.299Z,20.26
2018-08-18T03:33:24.669Z,20.25
2018-08-18T03:35:53.083Z,20.23
2018-08-18T03:38:21.484Z,20.22
2018-08-18T03:40:49.840Z,20.06
2018-08-18T03:43:18.183Z,20.09
2018-08-18T03:45:46.552Z,20.09
2018-08-18T03:48:14.912Z,20.10
2018-08-18T03:50:47.723Z,20.08
2018-08-18T03:53:19.181Z,20.11
2018-08-18T03:55:47.588Z,20.03
2018-08-18T03:58:15.964Z,19.92
2018-08-18T04:00:44.388Z,19.90
2018-08-18T04:03:12.784Z,19.89
2018-08-18T04:05:41.161Z,19.92
2018-08-18T04:08:09.542Z,19.91
2018-08-18T04:10:37.935Z,19.84
2018-08-18T04:13:06.297Z,19.73
2018-08-18T04:15:34.687Z,19.75
2018-08-18T04:18:08.311Z,19.76
2018-08-18T04:20:36.686Z,19.77
2018-08-18T04:23:05.036Z,19.87
2018-08-18T04:25:33.375Z,19.85
2018-08-18T04:28:01.737Z,19.80
2018-08-18T04:30:30.991Z,19.68
2018-08-18T04:33:02.459Z,19.63
2018-08-18T04:35:31.756Z,19.62
2018-08-18T04:38:01.758Z,19.61
2018-08-18T04:40:30.162Z,19.67
2018-08-18T04:42:59.745Z,19.72
2018-08-18T04:45:28.125Z,19.81
2018-08-18T04:47:56.494Z,19.82
2018-08-18T04:50:24.901Z,19.87
2018-08-18T04:52:54.107Z,19.85
2018-08-18T04:55:22.704Z,19.92
2018-08-18T04:57:51.271Z,19.82
2018-08-18T05:00:19.705Z,19.85
2018-08-18T05:03:03.558Z,19.87
2018-08-18T05:05:32.703Z,19.88
2018-08-18T05:08:01.900Z,19.94
2018-08-18T05:10:30.782Z,19.89
2018-08-18T05:12:59.150Z,19.90
2018-08-18T05:15:27.518Z,19.83
2018-08-18T05:17:55.936Z,19.88
2018-08-18T05:20:25.997Z,19.93
2018-08-18T05:22:54.366Z,19.86
2018-08-18T05:25:28.974Z,19.97
2018-08-18T05:27:58.230Z,20.03
2018-08-18T05:30:26.717Z,20.06
2018-08-18T05:32:55.070Z,20.06
2018-08-18T05:35:23.420Z,20.02
2018-08-18T05:37:51.773Z,20.11
2018-08-18T05:40:20.152Z,20.19
2018-08-18T05:42:48.491Z,20.19
2018-08-18T05:45:37.752Z,20.17
2018-08-18T05:48:06.108Z,20.26
2018-08-18T05:50:34.468Z,20.27
2018-08-18T05:53:15.203Z,20.28
2018-08-18T05:55:43.635Z,20.31
2018-08-18T05:58:12.597Z,20.30
2018-08-18T06:00:40.980Z,20.35
2018-08-18T06:03:09.423Z,20.40
2018-08-18T06:05:37.928Z,20.58
2018-08-18T06:08:06.612Z,20.68
2018-08-18T06:10:34.963Z,20.78
2018-08-18T06:13:08.605Z,20.86
2018-08-18T06:15:36.991Z,21.01
2018-08-18T06:18:05.620Z,21.08
2018-08-18T06:20:33.964Z,21.15
2018-08-18T06:23:02.327Z,21.20
2018-08-18T06:25:30.768Z,21.25
2018-08-18T06:27:59.177Z,21.50
2018-08-18T06:30:27.528Z,21.66
2018-08-18T06:32:55.903Z,21.87
2018-08-18T06:35:24.326Z,21.98
2018-08-18T06:37:58.068Z,22.16
2018-08-18T06:40:26.424Z,22.31
2018-08-18T06:42:54.789Z,22.40
2018-08-18T06:45:23.194Z,22.65
2018-08-18T06:47:51.666Z,22.96
2018-08-18T06:50:21.256Z,23.11
2018-08-18T06:52:49.611Z,23.35
2018-08-18T06:55:20.264Z,23.74
2018-08-18T06:57:53.535Z,23.88
2018-08-18T07:00:23.375Z,24.17
2018-08-18T07:02:51.739Z,24.39
2018-08-18T07:05:20.633Z,24.60
2018-08-18T07:07:49.923Z,24.65
2018-08-18T07:10:35.944Z,24.83
2018-08-18T07:13:05.546Z,25.04
2018-08-18T07:15:36.067Z,25.34
2018-08-18T07:18:05.037Z,25.60
2018-08-18T07:20:33.403Z,25.66
2018-08-18T07:23:01.833Z,25.91
2018-08-18T07:25:30.219Z,26.28
2018-08-18T07:28:03.983Z,26.38
2018-08-18T07:30:32.793Z,26.72
2018-08-18T07:33:01.664Z,26.81
2018-08-18T07:35:30.147Z,26.59
2018-08-18T07:37:58.552Z,27.01
2018-08-18T07:40:33.254Z,27.25
2018-08-18T07:43:06.173Z,27.10
2018-08-18T07:45:35.130Z,27.29
2018-08-18T07:48:03.886Z,27.14
2018-08-18T07:50:32.604Z,26.89
2018-08-18T07:53:01.098Z,26.87
2018-08-18T07:55:29.688Z,26.97
2018-08-18T07:57:59.392Z,26.47
2018-08-18T08:00:28.898Z,27.04
2018-08-18T08:02:57.472Z,27.01
2018-08-18T08:05:25.850Z,27.73
2018-08-18T08:07:54.202Z,27.84
2018-08-18T08:10:22.648Z,27.53
2018-08-18T08:12:51.091Z,27.43
2018-08-18T08:15:19.420Z,27.27
2018-08-18T08:17:48.154Z,27.03
2018-08-18T08:20:17.439Z,26.92
2018-08-18T08:22:46.473Z,26.60
2018-08-18T08:25:14.904Z,26.75
2018-08-18T08:27:47.300Z,26.25
2018-08-18T08:30:16.294Z,25.90
2018-08-18T08:32:44.984Z,25.81
2018-08-18T08:35:13.468Z,25.52
2018-08-18T08:37:42.049Z,25.57
2018-08-18T08:40:13.095Z,25.44
2018-08-18T08:42:41.544Z,25.37
2018-08-18T08:45:12.304Z,25.25
2018-08-18T08:47:41.068Z,25.05
2018-08-18T08:50:11.206Z,24.82
2018-08-18T08:52:45.008Z,24.82
2018-08-18T08:55:13.395Z,25.06
2018-08-18T08:57:41.777Z,25.17
2018-08-18T09:00:10.741Z,25.46
2018-08-18T09:02:39.092Z,25.89
2018-08-18T09:05:07.838Z,26.42
2018-08-18T09:07:36.532Z,27.26
2018-08-18T09:10:05.996Z,27.53
2018-08-18T09:12:34.406Z,27.99
2018-08-18T09:15:02.746Z,28.72
2018-08-18T09:17:31.094Z,29.65
2018-08-18T09:19:59.473Z,30.04
2018-08-18T09:22:27.853Z,30.18
2018-08-18T09:24:57.911Z,29.92
2018-08-18T09:27:26.254Z,29.58
2018-08-18T09:29:55.533Z,28.66
2018-08-18T09:32:23.896Z,27.98
2018-08-18T09:34:53.208Z,28.00
2018-08-18T09:37:22.080Z,28.05
2018-08-18T09:39:50.426Z,28.17
2018-08-18T09:42:19.792Z,27.89
2018-08-18T09:44:49.783Z,27.84
2018-08-18T09:47:18.198Z,27.62
2018-08-18T09:49:46.677Z,27.65
2018-08-18T09:52:16.779Z,27.86
2018-08-18T09:54:45.200Z,28.10
2018-08-18T09:57:13.588Z,28.09
2018-08-18T09:59:43.225Z,28.34
2018-08-18T10:02:12.574Z,28.22
2018-08-18T10:04:40.940Z,28.48
2018-08-18T10:07:09.440Z,28.25
2018-08-18T10:09:37.827Z,28.07
2018-08-18T10:12:06.926Z,28.36
2018-08-18T10:14:35.305Z,28.22
2018-08-18T10:17:03.799Z,28.35
2018-08-18T10:19:33.061Z,28.26
2018-08-18T10:22:02.156Z,27.84
2018-08-18T10:24:30.532Z,28.04
2018-08-18T10:27:05.362Z,28.25
2018-08-18T10:29:33.748Z,28.37
2018-08-18T10:32:02.127Z,28.03
2018-08-18T10:34:31.706Z,28.01
2018-08-18T10:37:05.252Z,28.16
2018-08-18T10:39:34.085Z,28.28
2018-08-18T10:42:14.661Z,27.94
2018-08-18T10:44:49.591Z,27.36
2018-08-18T10:47:20.127Z,27.94
2018-08-18T10:49:59.891Z,28.16
2018-08-18T10:52:40.156Z,28.45
2018-08-18T10:55:10.766Z,28.94
2018-08-18T10:57:51.495Z,29.22
2018-08-18T11:00:21.247Z,29.15
2018-08-18T11:02:50.862Z,29.16
2018-08-18T11:05:19.758Z,28.72
2018-08-18T11:07:56.669Z,28.72
2018-08-18T11:10:26.736Z,28.74
2018-08-18T11:12:55.108Z,28.39
2018-08-18T11:15:23.552Z,28.04
2018-08-18T11:17:51.965Z,28.07
2018-08-18T11:20:23.737Z,28.18
2018-08-18T11:22:57.016Z,28.10
2018-08-18T11:25:28.481Z,27.89
2018-08-18T11:27:57.577Z,27.78
2018-08-18T11:30:26.169Z,27.65
2018-08-18T11:32:55.561Z,27.31
2018-08-18T11:35:23.959Z,27.38
2018-08-18T11:37:57.834Z,27.36
2018-08-18T11:40:27.051Z,27.32
2018-08-18T11:42:58.500Z,27.31
2018-08-18T11:45:28.936Z,27.11
2018-08-18T11:48:16.261Z,26.51
2018-08-18T11:50:45.040Z,26.73
2018-08-18T11:53:13.420Z,26.67
2018-08-18T11:55:41.824Z,26.43
2018-08-18T11:58:12.084Z,26.52
2018-08-18T12:00:44.072Z,26.58
2018-08-18T12:03:16.671Z,26.57
2018-08-18T12:05:48.448Z,26.58
2018-08-18T12:08:18.391Z,26.38
2018-08-18T12:10:47.496Z,26.37
2018-08-18T12:13:15.831Z,26.32
2018-08-18T12:15:58.728Z,26.26
2018-08-18T12:18:28.934Z,26.37
2018-08-18T12:20:59.489Z,26.25
2018-08-18T12:23:28.281Z,26.38
2018-08-18T12:26:04.354Z,26.36
2018-08-18T12:28:43.005Z,26.29
2018-08-18T12:31:13.500Z,26.38
2018-08-18T12:33:42.050Z,26.47
2018-08-18T12:36:10.799Z,26.57
2018-08-18T12:38:42.559Z,26.57
2018-08-18T12:41:10.945Z,26.50
2018-08-18T12:43:40.812Z,26.44
2018-08-18T12:46:12.048Z,26.45
2018-08-18T12:48:43.658Z,26.31
2018-08-18T12:51:13.114Z,26.33
2018-08-18T12:53:48.163Z,26.32
2018-08-18T12:56:18.596Z,26.31
2018-08-18T12:58:47.074Z,26.40
2018-08-18T13:01:57.641Z,26.35
2018-08-18T13:04:26.119Z,26.24
2018-08-18T13:06:54.708Z,26.19
2018-08-18T13:09:24.614Z,26.15
2018-08-18T13:11:54.320Z,26.07
2018-08-18T13:14:27.572Z,26.15
2018-08-18T13:16:55.879Z,25.91
2018-08-18T13:19:26.014Z,26.09
2018-08-18T13:21:54.395Z,26.36
2018-08-18T13:24:22.786Z,26.41
2018-08-18T13:26:51.197Z,26.41
2018-08-18T13:29:19.575Z,26.37
2018-08-18T13:31:47.920Z,26.44
2018-08-18T13:34:17.514Z,26.40
2018-08-18T13:36:46.653Z,26.39
2018-08-18T13:39:16.338Z,26.49
2018-08-18T13:41:45.624Z,26.58
2018-08-18T13:44:25.746Z,26.70
2018-08-18T13:46:54.227Z,26.67
2018-08-18T13:49:24.907Z,26.66
2018-08-18T13:51:53.460Z,26.61
2018-08-18T13:54:22.263Z,26.55
2018-08-18T13:56:51.120Z,26.61
2018-08-18T13:59:35.728Z,26.55
2018-08-18T14:02:04.138Z,26.55
2018-08-18T14:04:32.511Z,26.49
2018-08-18T14:07:00.861Z,26.47
2018-08-18T14:09:29.230Z,26.46
2018-08-18T14:12:03.021Z,26.44
2018-08-18T14:14:31.388Z,26.49
2018-08-18T14:16:59.763Z,26.50
2018-08-18T14:19:28.162Z,26.42
2018-08-18T14:22:00.704Z,26.47
2018-08-18T14:24:33.327Z,26.43
2018-08-18T14:27:03.119Z,26.37
2018-08-18T14:29:32.798Z,26.30
2018-08-18T14:32:01.857Z,26.28
2018-08-18T14:34:30.469Z,26.25
2018-08-18T14:37:15.437Z,26.20
2018-08-18T14:39:44.128Z,26.12
2018-08-18T14:42:12.459Z,26.07
2018-08-18T14:44:40.879Z,26.01
2018-08-18T14:47:09.262Z,25.95
2018-08-18T14:49:37.609Z,25.95
2018-08-18T14:52:06.060Z,25.92
2018-08-18T14:54:34.554Z,25.89
2018-08-18T14:57:03.878Z,25.83
2018-08-18T14:59:33.478Z,25.79
2018-08-18T15:02:03.298Z,25.79
2018-08-18T15:04:31.739Z,25.75
2018-08-18T15:07:00.291Z,25.69
2018-08-18T15:09:40.890Z,25.66
2018-08-18T15:12:09.267Z,25.62
2018-08-18T15:14:37.613Z,25.61
2018-08-18T15:17:06.017Z,25.53
2018-08-18T15:19:34.406Z,25.51
2018-08-18T15:22:06.339Z,25.49
2018-08-18T15:24:34.721Z,25.41
2018-08-18T15:27:03.125Z,25.44
2018-08-18T15:29:31.964Z,25.42
2018-08-18T15:32:00.705Z,25.43
2018-08-18T15:34:29.083Z,25.43
2018-08-18T15:36:57.464Z,25.39
2018-08-18T15:39:27.415Z,25.39
2018-08-18T15:41:57.829Z,25.38
2018-08-18T15:44:26.179Z,25.34
2018-08-18T15:46:54.530Z,25.35
2018-08-18T15:49:22.872Z,25.31
2018-08-18T15:51:51.287Z,25.35
2018-08-18T15:54:19.719Z,25.30
2018-08-18T15:56:48.104Z,25.20
2018-08-18T15:59:16.525Z,25.16
2018-08-18T16:01:44.936Z,25.14
2018-08-18T16:04:13.386Z,25.10
2018-08-18T16:06:41.764Z,25.07
2018-08-18T16:09:10.169Z,25.02
2018-08-18T16:11:38.654Z,25.07
2018-08-18T16:14:07.112Z,25.06
2018-08-18T16:16:49.656Z,25.08
2018-08-18T16:19:18.152Z,25.03
2018-08-18T16:21:46.597Z,25.00
2018-08-18T16:24:29.909Z,24.98
2018-08-18T16:26:58.460Z,24.96
2018-08-18T16:29:26.974Z,24.89
2018-08-18T16:32:10.894Z,24.89
2018-08-18T16:34:39.333Z,24.82
2018-08-18T16:37:07.848Z,24.80
2018-08-18T16:39:36.300Z,24.75
2018-08-18T16:42:05.245Z,24.74
2018-08-18T16:44:33.861Z,24.71
2018-08-18T16:47:04.394Z,24.70
2018-08-18T16:49:33.160Z,24.74
2018-08-18T16:52:01.815Z,24.68
2018-08-18T16:54:32.343Z,24.66
2018-08-18T16:57:01.061Z,24.64
2018-08-18T16:59:30.061Z,24.63
2018-08-18T17:01:58.796Z,24.64
2018-08-18T17:04:31.011Z,24.61
2018-08-18T17:06:59.806Z,24.58
2018-08-18T17:09:41.419Z,24.53
2018-08-18T17:12:23.956Z,24.51
2018-08-18T17:14:52.355Z,24.46
2018-08-18T17:17:23.298Z,24.43
2018-08-18T17:19:51.797Z,24.42
2018-08-18T17:22:20.216Z,24.42
2018-08-18T17:24:48.643Z,24.40
2018-08-18T17:27:17.085Z,24.36
2018-08-18T17:29:47.228Z,24.32
2018-08-18T17:32:15.691Z,24.29
2018-08-18T17:34:44.156Z,24.25
2018-08-18T17:37:12.631Z,24.25
2018-08-18T17:39:41.063Z,24.21
2018-08-18T17:42:09.552Z,24.14
2018-08-18T17:44:38.047Z,24.12
2018-08-18T17:47:08.000Z,24.08
2018-08-18T17:49:41.356Z,24.04
2018-08-18T17:52:09.869Z,24.00
2018-08-18T17:54:38.915Z,23.97
2018-08-18T17:57:08.062Z,23.94
2018-08-18T17:59:37.099Z,23.89
2018-08-18T18:02:11.674Z,23.82
2018-08-18T18:04:40.220Z,23.77
2018-08-18T18:07:09.420Z,23.71
2018-08-18T18:09:37.857Z,23.68
2018-08-18T18:12:22.356Z,23.69
2018-08-18T18:14:50.868Z,23.63
2018-08-18T18:17:20.660Z,23.58
2018-08-18T18:19:49.180Z,23.55
2018-08-18T18:22:17.759Z,23.48
2018-08-18T18:24:46.235Z,23.49
2018-08-18T18:27:14.616Z,23.41
2018-08-18T18:29:44.069Z,23.39
2018-08-18T18:32:12.580Z,23.35
2018-08-18T18:34:41.324Z,23.27
2018-08-18T18:37:09.822Z,23.26
2018-08-18T18:39:53.002Z,23.21
2018-08-18T18:42:21.478Z,23.16
2018-08-18T18:44:50.113Z,23.12
2018-08-18T18:47:18.619Z,23.09
2018-08-18T18:49:47.171Z,23.04
2018-08-18T18:52:15.550Z,23.02
2018-08-18T18:54:43.926Z,22.99
2018-08-18T18:57:12.341Z,22.93
2018-08-18T18:59:46.048Z,22.89
2018-08-18T19:02:14.496Z,22.80
2018-08-18T19:04:42.987Z,22.75
2018-08-18T19:07:11.535Z,22.71
2018-08-18T19:09:39.974Z,22.70
2018-08-18T19:12:08.386Z,22.68
2018-08-18T19:14:36.816Z,22.63
2018-08-18T19:17:05.257Z,22.62
2018-08-18T19:19:33.678Z,22.53
2018-08-18T19:22:03.211Z,22.53
2018-08-18T19:24:31.564Z,22.51
2018-08-18T19:27:00.834Z,22.47
2018-08-18T19:29:29.930Z,22.39
2018-08-18T19:31:59.960Z,22.36
2018-08-18T19:34:28.842Z,22.32
2018-08-18T19:36:59.869Z,22.28
2018-08-18T19:39:30.017Z,22.27
2018-08-18T19:42:08.588Z,22.22
2018-08-18T19:44:43.650Z,22.17
2018-08-18T19:47:12.097Z,22.11
2018-08-18T19:49:43.645Z,22.08
2018-08-18T19:52:13.329Z,22.06
2018-08-18T19:54:44.853Z,21.98
2018-08-18T19:57:13.939Z,21.95
2018-08-18T19:59:42.312Z,21.92
2018-08-18T20:02:10.695Z,21.86
2018-08-18T20:04:39.188Z,21.82
2018-08-18T20:07:07.682Z,21.79
2018-08-18T20:09:36.195Z,21.73
2018-08-18T20:12:04.615Z,21.72
2018-08-18T20:14:33.003Z,21.69
2018-08-18T20:17:01.398Z,21.64
2018-08-18T20:19:29.786Z,21.63
2018-08-18T20:21:58.308Z,21.55
2018-08-18T20:24:26.800Z,21.54
2018-08-18T20:26:55.225Z,21.51
2018-08-18T20:29:23.681Z,21.48
2018-08-18T20:32:01.089Z,21.47
2018-08-18T20:34:29.861Z,21.42
2018-08-18T20:36:58.307Z,21.40
2018-08-18T20:39:28.784Z,21.34
2018-08-18T20:41:57.704Z,21.29
2018-08-18T20:44:29.535Z,21.25
2018-08-18T20:46:58.377Z,21.22
2018-08-18T20:49:26.728Z,21.20
2018-08-18T20:51:55.176Z,21.16
2018-08-18T20:54:23.544Z,21.15
2018-08-18T20:56:52.016Z,21.15
2018-08-18T20:59:20.361Z,21.16
2018-08-18T21:01:48.886Z,21.13
2018-08-18T21:04:17.398Z,21.08
2018-08-18T21:06:45.888Z,21.07
2018-08-18T21:09:25.606Z,21.09
2018-08-18T21:11:54.072Z,21.02
2018-08-18T21:14:22.552Z,21.02
2018-08-18T21:16:50.945Z,21.02
2018-08-18T21:19:22.969Z,20.98
2018-08-18T21:21:51.704Z,20.96
2018-08-18T21:24:20.184Z,20.90
2018-08-18T21:26:49.362Z,20.89
2018-08-18T21:29:17.777Z,20.90
2018-08-18T21:31:50.472Z,20.87
2018-08-18T21:34:19.283Z,20.77
2018-08-18T21:36:47.707Z,20.77
2018-08-18T21:39:16.282Z,20.80
2018-08-18T21:41:46.162Z,20.77
2018-08-18T21:44:15.323Z,20.70
2018-08-18T21:46:43.920Z,20.67
2018-08-18T21:49:12.938Z,20.68
2018-08-18T21:51:41.381Z,20.68
2018-08-18T21:54:09.766Z,20.66
2018-08-18T21:56:39.616Z,20.63
2018-08-18T21:59:10.005Z,20.60
2018-08-18T22:01:38.451Z,20.61
2018-08-18T22:04:07.308Z,20.59
2018-08-18T22:06:35.710Z,20.60
2018-08-18T22:09:17.322Z,20.56
2018-08-18T22:11:45.861Z,20.55
2018-08-18T22:14:15.571Z,20.54
2018-08-18T22:16:49.326Z,20.54
2018-08-18T22:19:20.012Z,20.54
2018-08-18T22:21:48.358Z,20.53
2018-08-18T22:24:16.772Z,20.52
2018-08-18T22:26:45.118Z,20.51
2018-08-18T22:29:13.672Z,20.48
2018-08-18T22:31:42.078Z,20.48
2018-08-18T22:34:10.432Z,20.44
2018-08-18T22:36:38.836Z,20.44
2018-08-18T22:39:11.208Z,20.41
2018-08-18T22:41:43.551Z,20.39
2018-08-18T22:44:11.965Z,20.38
2018-08-18T22:46:40.378Z,20.37
2018-08-18T22:49:08.791Z,20.34
2018-08-18T22:51:37.258Z,20.32
2018-08-18T22:54:05.637Z,20.28
2018-08-18T22:56:37.038Z,20.28
2018-08-18T22:59:07.867Z,20.29
2018-08-18T23:01:37.452Z,20.27
2018-08-18T23:04:18.892Z,20.23
2018-08-18T23:06:47.309Z,20.16
2018-08-18T23:09:15.718Z,20.18
2018-08-18T23:11:44.773Z,20.18
2018-08-18T23:14:13.157Z,20.19
2018-08-18T23:16:42.122Z,20.18
2018-08-18T23:19:10.602Z,20.17
2018-08-18T23:21:38.976Z,20.14
2018-08-18T23:24:21.593Z,20.12
2018-08-18T23:26:50.103Z,20.09
2018-08-18T23:29:18.460Z,20.09
2018-08-18T23:31:47.450Z,20.08
2018-08-18T23:34:15.885Z,20.08
2018-08-18T23:36:44.858Z,20.07
2018-08-18T23:39:13.841Z,20.05
2018-08-18T23:41:42.667Z,20.04
2018-08-18T23:44:11.697Z,20.03
2018-08-18T23:46:40.151Z,19.96
2018-08-18T23:49:08.665Z,19.96
2018-08-18T23:51:42.155Z,19.91
2018-08-18T23:54:14.732Z,19.86
2018-08-18T23:56:43.111Z,19.84
2018-08-18T23:59:11.527Z,19.78
